Time;durP1;ratioP1;P1;durP2;ratioP2;P2;SDS_P1;SDS_P2;PMS_P1;PMS_P2;Temp;Humidity;BMP_temperature;BMP_pressure;BME280_temperature;BME280_humidity;BME280_pressure;Samples;Min_cycle;Max_cycle;Signal;HPM_P1;HPM_P2
2021/10/27 00:01:00;;;;;;;31.53;14.03;;;8.50;99.90;;;;;;4996096;28;20656;-93
2021/10/27 00:03:27;;;;;;;20.80;13.17;;;8.30;99.90;;;;;;4995738;28;20626;-92
2021/10/27 00:05:56;;;;;;;30.27;14.50;;;8.30;99.90;;;;;;4978240;28;20617;-93
2021/10/27 00:08:23;;;;;;;21.33;14.73;;;8.30;99.90;;;;;;4993933;28;20731;-94
2021/10/27 00:10:51;;;;;;;30.73;15.70;;;8.30;99.90;;;;;;4995672;28;20672;-93
2021/10/27 00:13:21;;;;;;;28.53;15.03;;;8.30;99.90;;;;;;4995515;28;20670;-93
2021/10/27 00:15:48;;;;;;;36.07;16.37;;;8.30;99.90;;;;;;4992082;28;20637;-93
2021/10/27 00:18:15;;;;;;;39.73;16.80;;;8.30;99.90;;;;;;4996344;28;20634;-93
2021/10/27 00:20:43;;;;;;;58.07;17.27;;;8.30;99.90;;;;;;4975185;28;21114;-93
2021/10/27 00:23:11;;;;;;;35.57;15.60;;;8.30;99.90;;;;;;4990408;28;21063;-93
2021/10/27 00:25:38;;;;;;;30.13;15.43;;;8.20;99.90;;;;;;4992026;28;20740;-93
2021/10/27 00:28:05;;;;;;;46.87;15.83;;;8.30;99.90;;;;;;4988519;28;20640;-93
2021/10/27 00:30:32;;;;;;;39.97;16.90;;;8.30;99.90;;;;;;4992452;28;20661;-92
2021/10/27 00:32:59;;;;;;;55.83;16.60;;;8.30;99.90;;;;;;4989117;28;20588;-92
2021/10/27 00:35:27;;;;;;;38.27;14.63;;;8.30;99.90;;;;;;4990352;28;20649;-92
2021/10/27 00:37:54;;;;;;;93.13;19.47;;;8.30;99.90;;;;;;4970621;28;20680;-93
2021/10/27 00:40:27;;;;;;;44.00;14.87;;;8.30;99.90;;;;;;4989822;28;20664;-93
2021/10/27 00:42:54;;;;;;;66.70;17.73;;;8.30;99.90;;;;;;4991401;28;20796;-92
2021/10/27 00:45:21;;;;;;;131.27;19.10;;;8.30;99.90;;;;;;4990233;28;20633;-94
2021/10/27 00:47:48;;;;;;;166.27;21.17;;;8.40;99.90;;;;;;4991165;28;20629;-92
2021/10/27 00:50:15;;;;;;;111.70;19.57;;;8.40;99.90;;;;;;4989615;28;20659;-91
2021/10/27 00:52:42;;;;;;;157.93;19.80;;;8.40;99.90;;;;;;4990098;28;20627;-94
2021/10/27 00:55:10;;;;;;;136.10;19.90;;;8.40;99.90;;;;;;4992874;28;20665;-93
2021/10/27 00:57:39;;;;;;;324.23;26.70;;;8.40;99.90;;;;;;4986873;28;20644;-93
2021/10/27 01:00:08;;;;;;;297.53;28.47;;;8.40;99.90;;;;;;4993425;28;20692;-93
2021/10/27 01:02:36;;;;;;;356.07;31.30;;;8.40;99.90;;;;;;4997708;28;20988;-94
2021/10/27 01:05:03;;;;;;;172.87;21.93;;;8.20;99.90;;;;;;4987192;28;20644;-93
2021/10/27 01:07:30;;;;;;;103.00;19.47;;;8.20;99.90;;;;;;4996089;28;20671;-94
2021/10/27 01:09:57;;;;;;;93.20;18.90;;;8.30;99.90;;;;;;4998706;28;20674;-95
2021/10/27 01:12:25;;;;;;;89.27;19.87;;;8.20;99.90;;;;;;4996630;28;20667;-94
2021/10/27 01:14:53;;;;;;;30.23;14.87;;;8.20;99.90;;;;;;4998609;28;20679;-94
2021/10/27 01:17:21;;;;;;;33.53;16.60;;;8.20;99.90;;;;;;4996899;28;20637;-94
2021/10/27 01:19:52;;;;;;;51.83;16.67;;;8.10;99.90;;;;;;4997860;28;20656;-94
2021/10/27 01:22:23;;;;;;;66.43;18.27;;;8.10;99.90;;;;;;4996217;28;20645;-93
2021/10/27 01:24:51;;;;;;;78.67;18.37;;;8.00;99.90;;;;;;4990234;28;20629;-94
2021/10/27 01:27:18;;;;;;;89.07;20.67;;;8.10;99.90;;;;;;4990232;28;21047;-94
2021/10/27 01:29:45;;;;;;;75.00;18.50;;;8.10;99.90;;;;;;4989722;28;20659;-93
2021/10/27 01:32:22;;;;;;;146.43;21.13;;;8.10;99.90;;;;;;4992554;28;20630;-94
2021/10/27 01:34:51;;;;;;;128.43;23.17;;;8.10;99.90;;;;;;4993675;28;20666;-93
2021/10/27 01:37:19;;;;;;;110.23;19.27;;;8.00;99.90;;;;;;4985225;28;20643;-94
2021/10/27 01:39:47;;;;;;;106.20;20.60;;;8.00;99.90;;;;;;4993612;28;20671;-94
2021/10/27 01:42:14;;;;;;;248.47;26.43;;;8.00;99.90;;;;;;4989040;28;21255;-93
2021/10/27 01:44:42;;;;;;;172.57;22.40;;;8.00;99.90;;;;;;4991527;28;21163;-94
2021/10/27 01:47:11;;;;;;;51.70;19.70;;;8.00;99.90;;;;;;4994163;28;21202;-95
2021/10/27 01:49:38;;;;;;;108.40;19.90;;;8.00;99.90;;;;;;4992438;28;20732;-93
2021/10/27 01:52:07;;;;;;;105.33;20.30;;;8.00;99.90;;;;;;4972048;28;21154;-94
2021/10/27 01:54:34;;;;;;;128.03;21.07;;;8.00;99.90;;;;;;4974069;28;20662;-93
2021/10/27 01:57:02;;;;;;;234.63;25.17;;;8.00;99.90;;;;;;4992100;28;20639;-93
2021/10/27 01:59:29;;;;;;;172.23;26.10;;;8.00;99.90;;;;;;4993175;28;20642;-93
2021/10/27 02:01:56;;;;;;;230.93;26.30;;;8.00;99.90;;;;;;4992957;28;20660;-93
2021/10/27 02:04:22;;;;;;;224.43;24.40;;;8.00;99.90;;;;;;4990564;28;20664;-93
2021/10/27 02:06:50;;;;;;;199.30;22.93;;;7.90;99.90;;;;;;4996071;28;21032;-93
2021/10/27 02:09:22;;;;;;;158.23;19.73;;;7.90;99.90;;;;;;5003810;28;20636;-93
2021/10/27 02:11:50;;;;;;;156.80;21.23;;;7.90;99.90;;;;;;5001747;28;21086;-94
2021/10/27 02:14:17;;;;;;;146.73;22.00;;;7.90;99.90;;;;;;4999870;28;20722;-93
2021/10/27 02:16:44;;;;;;;210.67;25.00;;;7.90;99.90;;;;;;4989868;28;21616;-93
2021/10/27 02:19:11;;;;;;;210.33;25.03;;;7.80;99.90;;;;;;4990042;28;20639;-92
2021/10/27 02:21:39;;;;;;;268.13;26.13;;;7.60;99.90;;;;;;4993165;28;20660;-93
2021/10/27 02:24:07;;;;;;;95.00;17.80;;;7.60;99.90;;;;;;4990934;28;21125;-93
2021/10/27 02:26:35;;;;;;;98.47;18.37;;;7.60;99.90;;;;;;4989521;28;21218;-92
2021/10/27 02:29:02;;;;;;;159.03;20.00;;;7.60;99.90;;;;;;4990826;28;20629;-93
2021/10/27 02:31:29;;;;;;;104.57;17.23;;;7.50;99.90;;;;;;5008135;28;20660;-92
2021/10/27 02:33:56;;;;;;;89.10;16.30;;;7.40;99.90;;;;;;5003002;28;20731;-92
2021/10/27 02:36:23;;;;;;;102.97;19.20;;;7.40;99.90;;;;;;4998989;28;20652;-92
2021/10/27 02:38:50;;;;;;;121.40;19.20;;;7.40;99.90;;;;;;4974922;28;20633;-93
2021/10/27 02:41:17;;;;;;;100.27;16.80;;;7.30;99.90;;;;;;4975438;28;20678;-93
2021/10/27 02:43:46;;;;;;;36.93;14.60;;;7.30;99.90;;;;;;4992450;28;20633;-93
2021/10/27 02:46:13;;;;;;;51.90;17.77;;;7.30;99.90;;;;;;4990577;28;20640;-92
2021/10/27 02:48:40;;;;;;;90.57;15.27;;;7.20;99.90;;;;;;4974198;28;21175;-93
2021/10/27 02:51:08;;;;;;;53.67;14.53;;;7.20;99.90;;;;;;4986541;28;20667;-93
2021/10/27 02:53:35;;;;;;;44.97;13.10;;;7.10;99.90;;;;;;4989223;28;20632;-92
2021/10/27 02:56:04;;;;;;;88.67;17.20;;;7.10;99.90;;;;;;4975107;28;20768;-92
2021/10/27 02:58:32;;;;;;;58.90;15.10;;;7.10;99.90;;;;;;4981924;28;21180;-93
2021/10/27 03:01:01;;;;;;;57.53;15.50;;;7.10;99.90;;;;;;4972510;28;21207;-93
2021/10/27 03:03:28;;;;;;;48.10;13.40;;;7.00;99.90;;;;;;4969978;28;20633;-93
2021/10/27 03:05:57;;;;;;;36.30;13.87;;;7.10;99.90;;;;;;4989383;28;20589;-93
2021/10/27 03:08:24;;;;;;;37.03;13.30;;;7.00;99.90;;;;;;4991200;28;20629;-93
2021/10/27 03:10:51;;;;;;;29.17;12.90;;;6.90;99.90;;;;;;4975063;28;20660;-93
2021/10/27 03:13:18;;;;;;;44.67;12.90;;;7.00;99.90;;;;;;4995148;28;20960;-93
2021/10/27 03:15:45;;;;;;;34.57;12.53;;;6.90;99.90;;;;;;4984035;28;21007;-94
2021/10/27 03:18:13;;;;;;;108.77;15.43;;;6.90;99.90;;;;;;4988453;28;20630;-93
2021/10/27 03:20:40;;;;;;;31.60;13.40;;;6.90;99.90;;;;;;4988974;28;20744;-93
2021/10/27 03:23:09;;;;;;;30.67;12.53;;;6.90;99.90;;;;;;4989440;28;20638;-93
2021/10/27 03:25:36;;;;;;;62.47;13.00;;;6.90;99.90;;;;;;4984574;28;20640;-93
2021/10/27 03:28:03;;;;;;;63.70;13.00;;;6.80;99.90;;;;;;4986100;28;20633;-93
2021/10/27 03:30:33;;;;;;;79.70;14.73;;;6.80;99.90;;;;;;4983193;28;20676;-93
2021/10/27 03:33:00;;;;;;;113.03;15.73;;;6.80;99.90;;;;;;4988758;28;20709;-92
2021/10/27 03:35:29;;;;;;;75.47;13.10;;;6.70;99.90;;;;;;4982097;28;21063;-92
2021/10/27 03:37:55;;;;;;;79.00;14.37;;;6.70;99.90;;;;;;4986013;28;21037;-92
2021/10/27 03:40:23;;;;;;;121.10;16.97;;;6.70;99.90;;;;;;5010002;28;20660;-93
2021/10/27 03:42:50;;;;;;;27.83;12.00;;;6.60;99.90;;;;;;5007309;28;20649;-92
2021/10/27 03:45:18;;;;;;;58.50;13.53;;;6.70;99.90;;;;;;5003880;28;21079;-92
2021/10/27 03:47:45;;;;;;;40.50;12.90;;;6.70;99.90;;;;;;5002307;28;21222;-92
2021/10/27 03:50:14;;;;;;;58.47;13.50;;;6.70;99.90;;;;;;4985225;28;20653;-92
2021/10/27 03:52:44;;;;;;;39.07;12.33;;;6.80;99.90;;;;;;4986491;28;20632;-92
2021/10/27 03:55:11;;;;;;;68.60;13.50;;;6.80;99.90;;;;;;4975467;28;20767;-93
2021/10/27 03:57:38;;;;;;;54.90;13.80;;;6.80;99.90;;;;;;4996611;28;20609;-93
2021/10/27 04:00:08;;;;;;;115.27;16.63;;;6.70;99.90;;;;;;4989874;28;20669;-93
2021/10/27 04:02:37;;;;;;;118.93;17.63;;;6.80;99.90;;;;;;4974542;28;21032;-93
2021/10/27 04:05:05;;;;;;;144.97;18.70;;;6.70;99.90;;;;;;4972481;28;20653;-93
2021/10/27 04:07:33;;;;;;;126.87;17.80;;;6.70;99.90;;;;;;4988380;28;20638;-94
2021/10/27 04:10:07;;;;;;;193.90;20.07;;;6.70;99.90;;;;;;4971105;28;20664;-92
2021/10/27 04:12:36;;;;;;;176.70;20.43;;;6.80;99.90;;;;;;4985327;28;20641;-93
2021/10/27 04:15:05;;;;;;;192.57;20.00;;;6.80;99.90;;;;;;4985861;28;21203;-93
2021/10/27 04:17:32;;;;;;;153.03;18.20;;;6.80;99.90;;;;;;4984721;28;20975;-93
2021/10/27 04:20:00;;;;;;;140.67;17.70;;;6.80;99.90;;;;;;4987910;28;20656;-94
2021/10/27 04:22:27;;;;;;;86.17;15.70;;;6.60;99.90;;;;;;4990539;28;20844;-94
2021/10/27 04:24:54;;;;;;;140.37;18.70;;;6.60;99.90;;;;;;5001787;28;20720;-93
2021/10/27 04:27:23;;;;;;;70.03;15.50;;;6.60;99.90;;;;;;5002573;28;20658;-94
2021/10/27 04:29:49;;;;;;;119.50;19.63;;;6.60;99.90;;;;;;4998764;28;20633;-91
2021/10/27 04:32:16;;;;;;;66.63;15.53;;;6.50;99.90;;;;;;5001771;28;20604;-92
2021/10/27 04:34:43;;;;;;;118.87;18.07;;;6.50;99.90;;;;;;4992645;28;21220;-91
2021/10/27 04:37:11;;;;;;;137.73;18.37;;;6.60;99.90;;;;;;4990874;28;20629;-91
2021/10/27 04:39:40;;;;;;;105.13;15.77;;;6.50;99.90;;;;;;5002162;28;20702;-91
2021/10/27 04:42:07;;;;;;;109.03;17.67;;;6.60;99.90;;;;;;5009903;28;20632;-91
2021/10/27 04:44:35;;;;;;;134.77;21.13;;;6.50;99.90;;;;;;5000008;28;20624;-92
2021/10/27 04:47:03;;;;;;;119.83;20.53;;;6.60;99.90;;;;;;4992966;28;20633;-91
2021/10/27 04:49:31;;;;;;;179.37;22.40;;;6.50;99.90;;;;;;4987357;28;20695;-91
2021/10/27 04:51:58;;;;;;;196.00;20.27;;;6.50;99.90;;;;;;4994139;28;20698;-92
2021/10/27 04:54:25;;;;;;;208.07;27.50;;;6.50;99.90;;;;;;4995061;28;20640;-91
2021/10/27 04:56:53;;;;;;;286.67;28.00;;;6.50;99.90;;;;;;4991155;28;20636;-91
2021/10/27 04:59:20;;;;;;;217.23;26.27;;;6.40;99.90;;;;;;4976755;28;20629;-91
2021/10/27 05:01:48;;;;;;;256.33;25.87;;;6.40;99.90;;;;;;4990818;28;20732;-91
2021/10/27 05:04:16;;;;;;;141.53;19.33;;;6.40;99.90;;;;;;4974708;28;20635;-92
2021/10/27 05:06:43;;;;;;;158.37;21.30;;;6.50;99.90;;;;;;4989349;28;20684;-92
2021/10/27 05:09:11;;;;;;;120.50;19.20;;;6.40;99.90;;;;;;4996977;28;21037;-93
2021/10/27 05:11:42;;;;;;;166.57;20.40;;;6.50;99.90;;;;;;4992685;28;20672;-93
2021/10/27 05:14:09;;;;;;;134.40;20.30;;;6.60;99.90;;;;;;4994692;28;20683;-92
2021/10/27 05:16:38;;;;;;;130.90;19.57;;;6.50;99.90;;;;;;4992569;28;20781;-93
2021/10/27 05:19:06;;;;;;;111.60;18.60;;;6.40;99.90;;;;;;4993962;28;20636;-93
2021/10/27 05:21:35;;;;;;;104.60;19.23;;;6.40;99.90;;;;;;4993337;28;20775;-93
2021/10/27 05:24:04;;;;;;;133.17;22.00;;;6.40;99.90;;;;;;4991109;28;20887;-93
2021/10/27 05:26:31;;;;;;;120.30;20.67;;;6.30;99.90;;;;;;4992376;28;20651;-91
2021/10/27 05:28:58;;;;;;;128.52;21.58;;;6.40;99.90;;;;;;4990630;28;20757;-94
2021/10/27 05:31:29;;;;;;;120.17;21.17;;;6.40;99.90;;;;;;4993686;28;20233;-92
2021/10/27 05:33:56;;;;;;;230.30;25.73;;;6.30;99.90;;;;;;4992767;28;20639;-93
2021/10/27 05:36:24;;;;;;;81.73;20.70;;;6.20;99.90;;;;;;4996002;28;20758;-92
2021/10/27 05:38:51;;;;;;;123.27;22.27;;;6.30;99.90;;;;;;4990367;28;20981;-92
2021/10/27 05:41:18;;;;;;;126.97;24.57;;;6.30;99.90;;;;;;4988682;28;20663;-92
2021/10/27 05:43:45;;;;;;;208.40;30.03;;;6.30;99.90;;;;;;4994764;28;20701;-91
2021/10/27 05:46:13;;;;;;;183.47;26.17;;;6.20;99.90;;;;;;4994134;28;20624;-92
2021/10/27 05:48:44;;;;;;;167.20;27.60;;;6.20;99.90;;;;;;4993104;28;21087;-91
2021/10/27 05:51:19;;;;;;;109.17;23.67;;;6.20;99.90;;;;;;4994742;28;20706;-91
2021/10/27 05:56:34;;;;;;;55.03;19.77;;;6.30;99.90;;;;;;4989280;28;21012;-93
2021/10/27 05:59:03;;;;;;;83.43;20.33;;;6.20;99.90;;;;;;4993567;28;20704;-92
2021/10/27 06:01:31;;;;;;;55.17;19.30;;;6.20;99.90;;;;;;4991979;28;20655;-92
2021/10/27 06:03:57;;;;;;;27.80;16.70;;;6.20;99.90;;;;;;4985056;28;21245;-92
2021/10/27 06:06:26;;;;;;;20.23;15.00;;;6.20;99.90;;;;;;4989895;28;21186;-93
2021/10/27 06:08:58;;;;;;;110.43;19.30;;;6.30;99.90;;;;;;4992250;28;20652;-92
2021/10/27 06:11:29;;;;;;;87.80;19.27;;;6.20;99.90;;;;;;4988654;28;21229;-92
2021/10/27 06:13:56;;;;;;;44.63;18.40;;;6.20;99.90;;;;;;4988583;28;20698;-92
2021/10/27 06:16:24;;;;;;;77.90;20.63;;;6.20;99.90;;;;;;4988030;28;20664;-91
2021/10/27 06:18:51;;;;;;;99.10;22.07;;;6.20;99.90;;;;;;4991409;28;21187;-93
2021/10/27 06:21:18;;;;;;;45.07;17.10;;;6.20;99.90;;;;;;4990380;28;20721;-92
2021/10/27 06:23:45;;;;;;;108.13;22.03;;;6.20;99.90;;;;;;4988502;28;20727;-91
2021/10/27 06:26:14;;;;;;;80.50;18.30;;;6.10;99.90;;;;;;4983730;28;20623;-91
2021/10/27 06:28:45;;;;;;;141.43;23.30;;;6.20;99.90;;;;;;4987627;28;21210;-91
2021/10/27 06:31:18;;;;;;;90.13;20.60;;;6.20;99.90;;;;;;4988041;28;20648;-91
2021/10/27 06:33:52;;;;;;;91.87;21.60;;;6.30;99.90;;;;;;4989178;28;20733;-91
2021/10/27 06:36:24;;;;;;;70.53;20.00;;;6.30;99.90;;;;;;4986928;28;20691;-92
2021/10/27 06:47:12;;;;;;;111.53;19.77;;;6.20;99.90;;;;;;4957457;28;20623;-91
2021/10/27 06:49:39;;;;;;;92.50;20.50;;;6.20;99.90;;;;;;5000560;28;20657;-91
2021/10/27 06:52:06;;;;;;;87.47;19.83;;;6.20;99.90;;;;;;5005477;28;20663;-92
2021/10/27 06:54:35;;;;;;;87.40;18.90;;;6.20;99.90;;;;;;5000568;28;20658;-92
2021/10/27 06:57:04;;;;;;;72.90;18.90;;;6.20;99.90;;;;;;4995052;28;20688;-91
2021/10/27 06:59:34;;;;;;;86.97;19.40;;;6.30;99.90;;;;;;4989640;28;20635;-91
2021/10/27 07:16:01;;;;;;;22.87;14.87;;;6.50;99.90;;;;;;4996528;28;20679;-93
2021/10/27 07:18:28;;;;;;;33.50;13.57;;;6.60;99.90;;;;;;4997837;28;21151;-91
2021/10/27 07:20:55;;;;;;;17.50;14.40;;;6.60;99.90;;;;;;4995549;28;20727;-92
2021/10/27 07:23:22;;;;;;;14.63;13.13;;;6.60;99.90;;;;;;4992216;28;21244;-92
2021/10/27 07:25:56;;;;;;;27.43;12.83;;;6.60;99.90;;;;;;4991721;28;20631;-92
2021/10/27 07:28:26;;;;;;;21.30;13.30;;;6.70;99.90;;;;;;4988271;28;20695;-91
2021/10/27 07:30:57;;;;;;;25.87;13.30;;;6.70;99.90;;;;;;4967190;28;20739;-90
2021/10/27 07:33:25;;;;;;;17.53;12.00;;;6.80;99.90;;;;;;4983718;28;20625;-91
2021/10/27 07:35:56;;;;;;;27.10;13.57;;;6.80;99.90;;;;;;4986307;28;20768;-90
2021/10/27 07:41:08;;;;;;;39.97;14.30;;;7.00;99.90;;;;;;4986134;28;20635;-90
2021/10/27 07:43:36;;;;;;;87.90;15.13;;;7.10;99.90;;;;;;4990626;28;20711;-90
2021/10/27 07:46:04;;;;;;;86.00;16.10;;;6.90;99.90;;;;;;4992418;28;20660;-90
2021/10/27 07:48:31;;;;;;;20.87;11.57;;;6.80;99.90;;;;;;5000215;28;20664;-91
2021/10/27 07:50:59;;;;;;;26.87;12.90;;;6.80;99.90;;;;;;5000091;28;20644;-92
2021/10/27 07:53:30;;;;;;;39.60;12.80;;;6.90;99.90;;;;;;4999729;28;20618;-90
2021/10/27 07:55:58;;;;;;;24.10;12.60;;;6.90;99.90;;;;;;4998569;28;20719;-91
2021/10/27 07:58:26;;;;;;;14.30;12.37;;;6.90;99.90;;;;;;4989721;28;20645;-90
2021/10/27 08:00:57;;;;;;;110.03;17.17;;;7.00;99.90;;;;;;4988372;28;20669;-91
2021/10/27 08:03:26;;;;;;;106.80;17.10;;;7.00;99.90;;;;;;4986248;28;20643;-91
2021/10/27 08:05:56;;;;;;;76.10;15.97;;;7.00;99.90;;;;;;4988398;28;20640;-91
2021/10/27 08:08:24;;;;;;;40.97;15.13;;;7.10;99.90;;;;;;4990245;28;20640;-91
2021/10/27 08:10:51;;;;;;;59.80;14.80;;;7.30;99.90;;;;;;4989763;28;20660;-90
2021/10/27 08:13:19;;;;;;;43.47;15.27;;;7.50;99.90;;;;;;4978562;28;20639;-91
2021/10/27 08:15:46;;;;;;;55.33;13.80;;;7.50;99.90;;;;;;4986516;28;20678;-92
2021/10/27 08:18:17;;;;;;;27.97;13.07;;;7.50;99.90;;;;;;4988644;28;20648;-91
2021/10/27 08:20:45;;;;;;;85.97;16.20;;;7.70;99.90;;;;;;4987566;28;20674;-91
2021/10/27 08:23:14;;;;;;;48.10;14.83;;;7.50;99.90;;;;;;4985340;28;20660;-91
2021/10/27 08:25:44;;;;;;;36.10;20.93;;;7.70;99.90;;;;;;4981271;28;20643;-91
2021/10/27 08:28:14;;;;;;;57.63;17.20;;;7.60;99.90;;;;;;4986525;28;20624;-91
2021/10/27 08:30:49;;;;;;;192.80;22.40;;;7.50;99.90;;;;;;4986402;28;20725;-91
2021/10/27 08:33:34;;;;;;;21.63;15.43;;;7.50;99.90;;;;;;4991550;28;20590;-90
2021/10/27 08:36:02;;;;;;;140.53;25.00;;;7.50;99.90;;;;;;4978869;28;20662;-90
2021/10/27 08:38:29;;;;;;;168.30;21.63;;;7.50;99.90;;;;;;4987334;28;20640;-91
2021/10/27 08:40:57;;;;;;;59.47;14.00;;;7.60;99.90;;;;;;4984288;28;21063;-91
2021/10/27 08:43:25;;;;;;;46.63;12.87;;;7.60;99.90;;;;;;4987675;28;20631;-90
2021/10/27 08:45:53;;;;;;;60.17;13.33;;;7.70;99.90;;;;;;4984575;28;20710;-91
2021/10/27 08:48:22;;;;;;;17.00;11.70;;;7.70;99.90;;;;;;4982383;28;20689;-92
2021/10/27 08:50:52;;;;;;;11.00;9.90;;;7.90;99.90;;;;;;4985449;28;20661;-92
2021/10/27 08:53:22;;;;;;;15.83;11.50;;;7.90;99.90;;;;;;4985573;28;20736;-91
2021/10/27 08:55:52;;;;;;;12.20;10.57;;;8.20;99.90;;;;;;4989392;28;20699;-92
2021/10/27 08:58:24;;;;;;;11.00;10.17;;;8.40;99.90;;;;;;4985534;28;21160;-91
2021/10/27 09:00:59;;;;;;;10.33;9.53;;;8.50;99.90;;;;;;4984614;28;20663;-92
2021/10/27 09:03:38;;;;;;;11.43;10.60;;;8.60;99.90;;;;;;4986875;28;20648;-92
2021/10/27 09:06:22;;;;;;;10.50;9.40;;;8.60;99.90;;;;;;4985364;28;20633;-92
2021/10/27 09:09:27;;;;;;;12.53;11.53;;;8.70;99.90;;;;;;4987190;28;20647;-92
2021/10/27 09:41:22;;;;;;;10.10;9.30;;;10.00;99.90;;;;;;4942971;28;21118;-93
2021/10/27 09:44:18;;;;;;;12.10;11.10;;;10.30;99.90;;;;;;4989959;28;20700;-92
2021/10/27 09:55:47;;;;;;;12.40;9.07;;;11.50;99.90;;;;;;4987968;28;20604;-93
2021/10/27 10:04:07;;;;;;;10.03;9.23;;;12.50;99.90;;;;;;4990422;28;20620;-94
2021/10/27 10:06:38;;;;;;;9.37;8.47;;;12.50;99.90;;;;;;4995520;28;20633;-94
2021/10/27 10:09:07;;;;;;;8.80;8.10;;;12.90;99.90;;;;;;4996010;28;20747;-94
2021/10/27 10:11:38;;;;;;;8.93;7.60;;;13.30;99.90;;;;;;4990217;28;20678;-93
2021/10/27 10:14:07;;;;;;;9.63;8.93;;;13.40;99.90;;;;;;4989478;28;20660;-93
2021/10/27 10:16:41;;;;;;;7.10;6.50;;;13.70;99.90;;;;;;4990276;28;20767;-92
2021/10/27 10:19:25;;;;;;;10.30;9.40;;;13.90;99.90;;;;;;4981524;28;20639;-93
2021/10/27 10:22:07;;;;;;;10.77;9.87;;;13.90;99.90;;;;;;4997911;28;20632;-92
2021/10/27 10:24:45;;;;;;;8.97;8.20;;;14.00;99.90;;;;;;5005174;28;20636;-94
2021/10/27 10:27:22;;;;;;;7.50;7.00;;;13.80;99.90;;;;;;5005281;28;20652;-94
2021/10/27 10:30:04;;;;;;;8.20;7.20;;;14.00;99.90;;;;;;4993704;28;21040;-93
2021/10/27 10:35:24;;;;;;;8.27;7.50;;;14.20;99.90;;;;;;4997095;28;20947;-95
2021/10/27 10:38:05;;;;;;;12.07;7.20;;;14.20;99.90;;;;;;5000243;28;20656;-96
2021/10/27 10:41:00;;;;;;;8.60;7.73;;;14.20;99.90;;;;;;4994246;28;20692;-96
2021/10/27 10:44:19;;;;;;;8.50;7.70;;;14.60;99.90;;;;;;4999389;28;20639;-95
2021/10/27 11:00:37;;;;;;;8.07;7.20;;;15.30;99.90;;;;;;4884058;29;20613;-96
2021/10/27 11:03:55;;;;;;;8.07;7.37;;;15.40;99.90;;;;;;4895567;29;20998;-95
2021/10/27 15:21:58;;;;;;;3.67;2.27;;;21.80;84.00;;;;;;4974032;28;20648;-96
2021/10/27 15:24:39;;;;;;;3.57;2.40;;;21.20;88.50;;;;;;4950844;28;20684;-96
2021/10/27 15:30:22;;;;;;;2.60;1.97;;;20.60;90.70;;;;;;4966173;28;20615;-95
2021/10/27 15:33:03;;;;;;;3.00;2.37;;;20.40;91.40;;;;;;4963491;28;20645;-95
2021/10/27 15:35:41;;;;;;;3.20;2.90;;;19.30;95.70;;;;;;4975100;28;20639;-95
2021/10/27 15:41:04;;;;;;;4.37;3.77;;;18.20;99.90;;;;;;4972045;28;20703;-94
2021/10/27 15:52:03;;;;;;;5.00;4.50;;;16.70;99.90;;;;;;4970489;28;20797;-94
2021/10/27 15:54:32;;;;;;;6.43;5.03;;;16.30;99.90;;;;;;4972284;28;20657;-94
2021/10/27 15:57:00;;;;;;;6.07;4.30;;;16.00;99.90;;;;;;4972672;28;20689;-94
2021/10/27 15:59:29;;;;;;;5.53;3.10;;;15.70;99.90;;;;;;4974790;28;20637;-94
2021/10/27 16:01:56;;;;;;;3.10;2.80;;;15.40;99.90;;;;;;4976788;28;20662;-93
2021/10/27 16:04:23;;;;;;;4.20;2.90;;;15.20;99.90;;;;;;4967312;28;20741;-93
2021/10/27 16:06:54;;;;;;;3.63;3.00;;;14.80;99.90;;;;;;4961493;28;20876;-93
2021/10/27 16:09:30;;;;;;;2.60;2.40;;;14.60;99.90;;;;;;4949732;28;20717;-93
2021/10/27 16:11:57;;;;;;;3.13;2.17;;;14.40;99.90;;;;;;4965877;28;20664;-93
2021/10/27 16:14:28;;;;;;;2.50;1.90;;;14.10;99.90;;;;;;4967269;28;20638;-93
2021/10/27 16:16:55;;;;;;;2.70;1.70;;;13.90;99.90;;;;;;4971345;28;20696;-93
2021/10/27 16:19:22;;;;;;;2.37;1.73;;;13.80;99.90;;;;;;4965049;28;20648;-94
2021/10/27 16:21:50;;;;;;;2.13;1.37;;;13.60;99.90;;;;;;4962928;28;20732;-92
2021/10/27 16:24:18;;;;;;;2.53;2.20;;;13.50;99.90;;;;;;4965224;28;20644;-92
2021/10/27 16:26:54;;;;;;;3.30;2.33;;;13.30;99.90;;;;;;4968021;28;20634;-93
2021/10/27 16:29:30;;;;;;;3.83;2.17;;;13.10;99.90;;;;;;4967118;28;21231;-94
2021/10/27 16:31:59;;;;;;;9.27;4.17;;;12.90;99.90;;;;;;4970605;28;20660;-93
2021/10/27 16:34:26;;;;;;;3.93;3.30;;;12.70;99.90;;;;;;4969577;28;20966;-92
2021/10/27 16:36:53;;;;;;;3.60;2.30;;;12.60;99.90;;;;;;4968680;28;20669;-92
2021/10/27 16:39:22;;;;;;;3.47;2.77;;;12.30;99.90;;;;;;4971987;28;20995;-94
2021/10/27 16:41:50;;;;;;;4.83;1.83;;;12.20;99.90;;;;;;4966383;28;20665;-93
2021/10/27 16:44:20;;;;;;;6.40;1.70;;;12.10;99.90;;;;;;4968554;28;20741;-93
2021/10/27 16:46:47;;;;;;;4.53;2.63;;;12.00;99.90;;;;;;4969090;28;20638;-92
2021/10/27 16:49:14;;;;;;;3.40;2.43;;;11.90;99.90;;;;;;4973346;28;20647;-92
2021/10/27 16:51:41;;;;;;;5.53;3.00;;;11.80;99.90;;;;;;4968069;28;20669;-92
2021/10/27 16:54:08;;;;;;;6.97;5.80;;;11.70;99.90;;;;;;4971177;28;20641;-93
2021/10/27 16:56:36;;;;;;;10.73;6.67;;;11.60;99.90;;;;;;4975103;28;20640;-92
2021/10/27 16:59:04;;;;;;;7.57;5.77;;;11.50;99.90;;;;;;4975253;28;21047;-93
2021/10/27 17:01:35;;;;;;;10.83;6.63;;;11.50;99.90;;;;;;4972563;28;20652;-93
2021/10/27 17:04:02;;;;;;;55.63;39.23;;;11.40;99.90;;;;;;4971007;28;20645;-94
2021/10/27 17:06:32;;;;;;;40.30;29.67;;;11.40;99.90;;;;;;4975103;28;20609;-91
2021/10/27 17:09:00;;;;;;;35.60;26.20;;;11.30;99.90;;;;;;4971088;28;20696;-93
2021/10/27 17:11:28;;;;;;;22.93;17.40;;;11.20;99.90;;;;;;4970838;28;20658;-94
2021/10/27 17:13:56;;;;;;;10.73;6.73;;;11.00;99.90;;;;;;4967390;28;20662;-94
2021/10/27 17:16:28;;;;;;;9.40;7.43;;;11.00;99.90;;;;;;4969792;28;20696;-93
2021/10/27 17:18:55;;;;;;;5.10;3.63;;;10.90;99.90;;;;;;4973421;28;20702;-92
2021/10/27 17:21:51;;;;;;;2.87;2.67;;;10.80;99.90;;;;;;4973845;28;20684;-95
2021/10/27 17:27:39;;;;;;;3.63;3.03;;;10.70;99.90;;;;;;4970675;28;21039;-94
2021/10/27 17:30:09;;;;;;;4.90;3.40;;;10.60;99.90;;;;;;4965286;28;20641;-91
2021/10/27 17:32:47;;;;;;;4.00;3.60;;;10.50;99.90;;;;;;4970462;28;20634;-93
2021/10/27 17:35:22;;;;;;;4.23;3.27;;;10.50;99.90;;;;;;4973140;28;20636;-92
2021/10/27 17:37:59;;;;;;;5.57;4.50;;;10.40;99.90;;;;;;4961910;28;20665;-92
2021/10/27 17:40:30;;;;;;;4.20;3.80;;;10.40;99.90;;;;;;4965374;28;20665;-92
2021/10/27 17:43:00;;;;;;;4.70;3.20;;;10.30;99.90;;;;;;4954874;28;20621;-93
2021/10/27 17:45:35;;;;;;;4.13;3.50;;;10.30;99.90;;;;;;4969410;28;20752;-93
2021/10/27 17:48:06;;;;;;;4.10;3.60;;;10.40;99.90;;;;;;4969575;28;20633;-93
2021/10/27 17:50:51;;;;;;;4.43;4.03;;;10.30;99.90;;;;;;4968553;28;20661;-93
2021/10/27 17:59:04;;;;;;;3.63;3.33;;;10.00;99.90;;;;;;4974131;28;20723;-92
2021/10/27 18:01:34;;;;;;;5.17;4.47;;;9.90;99.90;;;;;;4969575;28;20680;-94
2021/10/27 18:04:05;;;;;;;4.33;3.97;;;9.90;99.90;;;;;;4962244;28;20637;-92
2021/10/27 18:06:33;;;;;;;5.20;4.70;;;10.00;99.90;;;;;;4959116;28;20669;-93
2021/10/27 18:09:08;;;;;;;5.77;4.90;;;9.90;99.90;;;;;;4962347;28;21011;-92
2021/10/27 18:11:36;;;;;;;5.60;4.73;;;9.80;99.90;;;;;;4970838;28;20660;-93
2021/10/27 18:14:08;;;;;;;5.60;5.10;;;9.70;99.90;;;;;;4966203;28;20642;-92
2021/10/27 18:16:43;;;;;;;5.77;5.27;;;9.70;99.90;;;;;;4969922;28;20736;-93
2021/10/27 18:19:19;;;;;;;6.20;5.60;;;9.60;99.90;;;;;;4969605;28;20656;-93
2021/10/27 18:21:58;;;;;;;6.63;4.70;;;9.60;99.90;;;;;;4967550;28;20666;-95
2021/10/27 18:25:03;;;;;;;7.13;6.20;;;9.60;99.90;;;;;;4973414;28;20660;-95
2021/10/27 18:27:48;;;;;;;5.80;5.23;;;9.50;99.90;;;;;;4972834;28;20629;-95
2021/10/27 18:36:31;;;;;;;6.03;5.47;;;9.40;99.90;;;;;;4938364;29;20642;-95
2021/10/27 18:39:05;;;;;;;9.30;6.40;;;9.30;99.90;;;;;;4967643;28;20665;-95
2021/10/27 18:41:37;;;;;;;7.07;6.37;;;9.20;99.90;;;;;;4988030;28;20653;-96
2021/10/27 18:44:24;;;;;;;7.20;6.17;;;9.20;99.90;;;;;;4989779;28;20629;-95
2021/10/27 18:47:01;;;;;;;6.57;5.80;;;9.20;99.90;;;;;;4987572;28;20633;-96
2021/10/27 18:49:28;;;;;;;10.90;7.23;;;9.10;99.90;;;;;;4984678;28;20648;-92
2021/10/27 18:52:06;;;;;;;7.47;6.53;;;9.00;99.90;;;;;;4960750;28;20661;-94
2021/10/27 18:54:47;;;;;;;8.00;6.83;;;9.10;99.90;;;;;;4971724;28;21182;-94
2021/10/27 18:57:17;;;;;;;6.80;6.20;;;9.00;99.90;;;;;;4968722;28;20641;-90
2021/10/27 18:59:47;;;;;;;7.70;6.27;;;8.90;99.90;;;;;;4973951;28;20630;-91
2021/10/27 19:02:17;;;;;;;7.50;6.03;;;8.80;99.90;;;;;;4962091;28;20637;-89
2021/10/27 19:13:00;;;;;;;6.23;5.13;;;8.70;99.90;;;;;;4962208;28;20630;-91
2021/10/27 19:15:31;;;;;;;7.20;5.17;;;8.70;99.90;;;;;;4959755;28;20724;-90